Time;durP1;ratioP1;P1;durP2;ratioP2;P2;SDS_P1;SDS_P2;PMS_P1;PMS_P2;Temp;Humidity;BMP_temperature;BMP_pressure;BME280_temperature;BME280_humidity;BME280_pressure;Samples;Min_cycle;Max_cycle;Signal;HPM_P1;HPM_P2
2024/03/06 00:07:04;;;;;;;4.30;3.63;;;;;;;;;;5065158;27;20846;-65
2024/03/06 00:09:31;;;;;;;4.53;3.60;;;;;;;;;;5040212;28;20473;-66
2024/03/06 00:11:57;;;;;;;4.43;3.78;;;;;;;;;;5034141;28;20029;-65
2024/03/06 00:14:22;;;;;;;5.43;3.92;;;;;;;;;;5040545;28;20029;-64
2024/03/06 00:16:50;;;;;;;5.18;3.55;;;;;;;;;;5035185;28;20162;-65
2024/03/06 00:19:15;;;;;;;6.00;4.05;;;;;;;;;;5038723;28;20049;-65
2024/03/06 00:21:41;;;;;;;4.72;3.50;;;;;;;;;;5040116;28;20159;-67
2024/03/06 00:24:06;;;;;;;4.80;3.78;;;;;;;;;;5030491;28;20068;-67
2024/03/06 00:26:31;;;;;;;5.50;4.13;;;;;;;;;;5031751;28;20505;-67
2024/03/06 00:28:57;;;;;;;6.30;4.07;;;;;;;;;;5039338;28;20040;-67
2024/03/06 00:31:22;;;;;;;4.53;3.63;;;;;;;;;;5038533;28;20048;-67
2024/03/06 00:33:48;;;;;;;5.25;4.10;;;;;;;;;;5027285;28;20038;-66
2024/03/06 00:36:13;;;;;;;5.63;3.50;;;;;;;;;;5032056;28;20107;-60
2024/03/06 00:38:39;;;;;;;4.75;3.92;;;;;;;;;;5032520;28;20444;-60
2024/03/06 00:41:04;;;;;;;4.60;3.70;;;;;;;;;;5034931;28;20053;-62
2024/03/06 00:43:29;;;;;;;5.10;3.88;;;;;;;;;;5039771;28;20045;-62
2024/03/06 00:45:56;;;;;;;4.63;3.75;;;;;;;;;;5038050;28;20157;-62
2024/03/06 00:48:21;;;;;;;5.30;3.60;;;;;;;;;;5038250;28;20681;-63
2024/03/06 00:50:46;;;;;;;4.53;3.38;;;;;;;;;;5039737;28;20112;-63
2024/03/06 00:53:12;;;;;;;4.68;3.65;;;;;;;;;;5027929;28;20026;-62
2024/03/06 00:55:37;;;;;;;5.00;3.83;;;;;;;;;;5040106;28;20068;-62
2024/03/06 00:58:03;;;;;;;5.18;3.85;;;;;;;;;;5037081;28;20043;-61
2024/03/06 01:00:29;;;;;;;4.97;3.78;;;;;;;;;;5038161;28;20048;-61
2024/03/06 01:02:54;;;;;;;4.80;3.63;;;;;;;;;;5037507;28;20029;-62
2024/03/06 01:05:20;;;;;;;5.55;4.03;;;;;;;;;;5039260;28;20037;-62
2024/03/06 01:07:45;;;;;;;5.47;4.03;;;;;;;;;;5021456;28;20124;-61
2024/03/06 01:10:11;;;;;;;5.05;3.90;;;;;;;;;;5023779;28;20148;-61
2024/03/06 01:12:36;;;;;;;4.93;3.70;;;;;;;;;;5025436;28;20516;-61
2024/03/06 01:15:03;;;;;;;7.07;4.60;;;;;;;;;;5023562;28;20128;-62
2024/03/06 01:17:29;;;;;;;5.22;3.83;;;;;;;;;;5020035;28;20034;-63
2024/03/06 01:19:54;;;;;;;5.45;3.83;;;;;;;;;;5018674;28;20747;-62
2024/03/06 01:22:19;;;;;;;5.90;4.10;;;;;;;;;;5022484;28;20045;-62
2024/03/06 01:24:45;;;;;;;5.30;3.97;;;;;;;;;;5026380;28;20042;-61
2024/03/06 01:27:10;;;;;;;5.18;3.50;;;;;;;;;;5025388;28;20797;-61
2024/03/06 01:29:35;;;;;;;5.45;4.00;;;;;;;;;;5025111;28;20489;-61
2024/03/06 01:32:01;;;;;;;4.38;3.72;;;;;;;;;;5016930;28;20034;-61
2024/03/06 01:34:26;;;;;;;5.68;4.10;;;;;;;;;;5026243;28;20033;-61
2024/03/06 01:36:55;;;;;;;5.50;3.88;;;;;;;;;;5014024;28;20033;-61
2024/03/06 01:39:21;;;;;;;5.25;4.18;;;;;;;;;;5025338;28;20057;-63
2024/03/06 01:41:46;;;;;;;4.85;4.00;;;;;;;;;;5026994;28;20060;-61
2024/03/06 01:44:12;;;;;;;5.03;3.88;;;;;;;;;;5015481;28;20037;-62
2024/03/06 01:46:38;;;;;;;5.55;4.00;;;;;;;;;;5013708;28;20077;-61
2024/03/06 01:49:04;;;;;;;5.00;3.78;;;;;;;;;;5020510;28;20060;-62
2024/03/06 01:51:29;;;;;;;5.47;3.92;;;;;;;;;;5020597;28;20556;-62
2024/03/06 01:53:54;;;;;;;4.65;3.78;;;;;;;;;;5026628;28;20041;-61
2024/03/06 01:56:21;;;;;;;4.60;3.88;;;;;;;;;;5012513;28;20119;-61
2024/03/06 01:58:46;;;;;;;5.05;4.03;;;;;;;;;;5019886;28;20029;-62
2024/03/06 02:01:12;;;;;;;5.18;3.72;;;;;;;;;;5024675;28;20041;-67
2024/03/06 02:03:37;;;;;;;5.07;3.95;;;;;;;;;;5024522;28;20037;-61
2024/03/06 02:06:03;;;;;;;5.22;4.00;;;;;;;;;;5012744;28;20046;-61
2024/03/06 02:08:28;;;;;;;4.78;3.70;;;;;;;;;;5016557;28;20994;-61
2024/03/06 02:10:54;;;;;;;5.15;3.95;;;;;;;;;;5022835;28;20512;-60
2024/03/06 02:13:21;;;;;;;4.55;3.70;;;;;;;;;;5024397;28;20037;-61
2024/03/06 02:15:46;;;;;;;5.75;4.00;;;;;;;;;;5019837;28;20041;-61
2024/03/06 02:18:11;;;;;;;4.68;3.90;;;;;;;;;;5023108;28;20030;-62
2024/03/06 02:20:42;;;;;;;4.97;3.47;;;;;;;;;;5025665;28;20098;-62
2024/03/06 02:23:07;;;;;;;5.95;4.07;;;;;;;;;;5024160;28;20048;-63
2024/03/06 02:25:33;;;;;;;4.70;3.67;;;;;;;;;;5019104;28;20481;-62
2024/03/06 02:27:58;;;;;;;5.30;3.78;;;;;;;;;;5018035;28;20034;-63
2024/03/06 02:30:24;;;;;;;4.78;3.70;;;;;;;;;;5023202;28;20037;-61
2024/03/06 02:32:49;;;;;;;4.85;4.00;;;;;;;;;;5022807;28;20041;-61
2024/03/06 02:35:14;;;;;;;4.78;4.03;;;;;;;;;;5020383;28;20046;-67
2024/03/06 02:37:44;;;;;;;5.82;4.10;;;;;;;;;;5023594;28;20034;-61
2024/03/06 02:40:10;;;;;;;4.97;3.90;;;;;;;;;;5018578;28;20049;-64
2024/03/06 02:42:36;;;;;;;4.53;3.55;;;;;;;;;;5024010;28;20180;-62
2024/03/06 02:45:01;;;;;;;6.50;4.30;;;;;;;;;;5022702;28;20095;-61
2024/03/06 02:47:26;;;;;;;4.90;3.90;;;;;;;;;;5021457;28;20477;-61
2024/03/06 02:49:52;;;;;;;5.30;3.83;;;;;;;;;;5021721;28;20041;-61
2024/03/06 02:52:17;;;;;;;4.88;3.75;;;;;;;;;;5018092;28;20175;-62
2024/03/06 02:54:42;;;;;;;4.72;3.65;;;;;;;;;;5024839;28;20061;-61
2024/03/06 02:57:08;;;;;;;5.13;4.07;;;;;;;;;;5011102;28;20076;-61
2024/03/06 02:59:33;;;;;;;6.68;4.13;;;;;;;;;;5016786;28;20038;-61
2024/03/06 03:02:00;;;;;;;5.32;3.83;;;;;;;;;;5025127;28;20055;-62
2024/03/06 03:04:26;;;;;;;5.15;3.92;;;;;;;;;;5024475;28;20428;-61
2024/03/06 03:06:52;;;;;;;4.03;3.63;;;;;;;;;;5008692;28;20041;-63
2024/03/06 03:09:17;;;;;;;5.78;4.10;;;;;;;;;;5023680;28;20056;-62
2024/03/06 03:11:43;;;;;;;5.75;4.05;;;;;;;;;;5024719;28;20408;-62
2024/03/06 03:14:09;;;;;;;5.80;4.00;;;;;;;;;;5027276;28;20052;-62
2024/03/06 03:16:35;;;;;;;5.20;4.10;;;;;;;;;;5020732;28;20049;-62
2024/03/06 03:19:01;;;;;;;5.15;4.10;;;;;;;;;;5025422;28;20029;-62
2024/03/06 03:21:26;;;;;;;6.07;4.35;;;;;;;;;;5022803;28;20104;-62
2024/03/06 03:23:52;;;;;;;5.43;4.07;;;;;;;;;;5034367;28;20132;-62
2024/03/06 03:26:17;;;;;;;4.72;3.90;;;;;;;;;;5013810;28;20424;-61
2024/03/06 03:28:42;;;;;;;5.88;3.90;;;;;;;;;;5012466;28;20532;-61
2024/03/06 03:31:08;;;;;;;5.82;4.75;;;;;;;;;;5018498;28;20430;-62
2024/03/06 03:33:34;;;;;;;5.15;3.97;;;;;;;;;;5022427;28;20092;-61
2024/03/06 03:35:59;;;;;;;4.80;3.92;;;;;;;;;;5022913;28;20042;-62
2024/03/06 03:38:25;;;;;;;6.28;4.43;;;;;;;;;;5025199;28;20037;-62
2024/03/06 03:40:50;;;;;;;5.75;3.75;;;;;;;;;;5024944;28;20512;-62
2024/03/06 03:43:16;;;;;;;5.95;4.32;;;;;;;;;;5026147;28;20029;-62
2024/03/06 03:45:41;;;;;;;6.03;4.50;;;;;;;;;;5015515;28;20034;-61
2024/03/06 03:48:06;;;;;;;4.95;3.88;;;;;;;;;;5029848;28;20428;-62
2024/03/06 03:50:32;;;;;;;5.55;4.32;;;;;;;;;;5018701;28;20524;-61
2024/03/06 03:52:57;;;;;;;5.50;4.32;;;;;;;;;;5020326;28;20029;-62
2024/03/06 03:55:26;;;;;;;4.88;3.92;;;;;;;;;;5017962;28;20041;-61
2024/03/06 03:57:52;;;;;;;5.10;4.20;;;;;;;;;;5017059;28;20203;-62
2024/03/06 04:00:17;;;;;;;5.90;4.13;;;;;;;;;;5021216;28;20103;-63
2024/03/06 04:02:42;;;;;;;5.65;4.18;;;;;;;;;;5023587;28;20080;-62
2024/03/06 04:05:09;;;;;;;5.30;4.03;;;;;;;;;;5022221;28;20106;-62
2024/03/06 04:07:34;;;;;;;5.97;4.32;;;;;;;;;;5021347;28;20084;-63
2024/03/06 04:09:59;;;;;;;5.13;3.70;;;;;;;;;;5019780;28;20797;-62
2024/03/06 04:12:25;;;;;;;5.15;4.03;;;;;;;;;;5022914;28;20053;-63
2024/03/06 04:14:50;;;;;;;5.43;4.10;;;;;;;;;;5021619;28;20549;-62
2024/03/06 04:17:15;;;;;;;5.95;3.97;;;;;;;;;;5021852;28;20088;-62
2024/03/06 04:19:41;;;;;;;5.63;4.20;;;;;;;;;;5014745;28;20040;-62
2024/03/06 04:22:06;;;;;;;4.70;4.07;;;;;;;;;;5024172;28;20532;-62
2024/03/06 04:24:31;;;;;;;4.70;4.20;;;;;;;;;;5022482;28;20043;-62
2024/03/06 04:26:56;;;;;;;4.68;3.80;;;;;;;;;;5021595;28;20154;-62
2024/03/06 04:29:22;;;;;;;5.32;4.15;;;;;;;;;;5021481;28;20029;-63
2024/03/06 04:31:47;;;;;;;4.95;4.05;;;;;;;;;;5022540;28;20512;-62
2024/03/06 04:34:12;;;;;;;5.28;4.13;;;;;;;;;;5024105;28;20034;-62
2024/03/06 04:36:38;;;;;;;4.82;3.80;;;;;;;;;;5022361;28;20045;-61
2024/03/06 04:39:07;;;;;;;5.72;4.43;;;;;;;;;;5018066;28;20110;-62
2024/03/06 04:41:33;;;;;;;4.95;4.20;;;;;;;;;;5023714;28;20500;-62
2024/03/06 04:44:00;;;;;;;6.25;4.25;;;;;;;;;;5026992;28;20038;-62
2024/03/06 04:46:25;;;;;;;6.10;4.15;;;;;;;;;;5025035;28;20033;-61
2024/03/06 04:48:51;;;;;;;5.93;4.50;;;;;;;;;;5028313;28;20021;-62
2024/03/06 04:51:19;;;;;;;5.05;3.97;;;;;;;;;;5027463;28;20033;-61
2024/03/06 04:53:44;;;;;;;5.22;4.18;;;;;;;;;;5027436;28;20464;-61
2024/03/06 04:56:10;;;;;;;6.25;4.35;;;;;;;;;;5014897;28;20049;-63
2024/03/06 04:58:35;;;;;;;5.70;4.22;;;;;;;;;;5022592;28;20017;-62
2024/03/06 05:01:01;;;;;;;5.75;4.03;;;;;;;;;;5017244;28;20033;-61
2024/03/06 05:03:26;;;;;;;5.93;4.07;;;;;;;;;;5026331;28;20040;-60
2024/03/06 05:05:51;;;;;;;5.00;4.10;;;;;;;;;;5023897;28;20033;-62
2024/03/06 05:08:17;;;;;;;5.55;4.30;;;;;;;;;;5028585;28;20032;-61
2024/03/06 05:10:42;;;;;;;4.75;4.03;;;;;;;;;;5026423;28;20040;-62
2024/03/06 05:13:07;;;;;;;6.32;4.25;;;;;;;;;;5028642;28;20099;-63
2024/03/06 05:15:32;;;;;;;4.93;4.00;;;;;;;;;;5026181;28;20041;-61
2024/03/06 05:17:58;;;;;;;4.90;4.10;;;;;;;;;;5027276;28;20501;-61
2024/03/06 05:20:23;;;;;;;6.10;4.15;;;;;;;;;;5026783;28;20026;-61
2024/03/06 05:22:49;;;;;;;5.90;4.30;;;;;;;;;;5025059;28;20042;-62
2024/03/06 05:25:14;;;;;;;5.57;4.38;;;;;;;;;;5027218;28;20049;-60
2024/03/06 05:27:39;;;;;;;5.35;3.92;;;;;;;;;;5027099;28;20037;-62
2024/03/06 05:30:05;;;;;;;5.18;3.97;;;;;;;;;;5022788;28;20268;-63
2024/03/06 05:32:30;;;;;;;5.60;4.10;;;;;;;;;;5024250;28;20044;-63
2024/03/06 05:34:57;;;;;;;5.57;3.85;;;;;;;;;;5019239;28;20041;-61
2024/03/06 05:37:23;;;;;;;5.47;3.92;;;;;;;;;;5022589;28;20470;-62
2024/03/06 05:39:48;;;;;;;5.45;3.58;;;;;;;;;;5023779;28;20128;-62
2024/03/06 05:42:13;;;;;;;5.13;3.90;;;;;;;;;;5021461;28;20103;-62
2024/03/06 05:44:39;;;;;;;5.88;4.25;;;;;;;;;;5017117;28;20505;-62
2024/03/06 05:47:06;;;;;;;4.85;3.72;;;;;;;;;;5026465;28;20382;-61
2024/03/06 05:49:32;;;;;;;5.35;4.13;;;;;;;;;;5028087;28;20040;-62
2024/03/06 05:51:57;;;;;;;5.20;4.20;;;;;;;;;;5022601;28;20033;-63
2024/03/06 05:54:23;;;;;;;4.72;3.70;;;;;;;;;;5025539;28;20030;-63
2024/03/06 05:56:49;;;;;;;4.82;3.80;;;;;;;;;;5016342;28;20132;-63
2024/03/06 05:59:15;;;;;;;5.68;3.92;;;;;;;;;;5015884;28;20041;-63
2024/03/06 06:01:41;;;;;;;5.75;4.03;;;;;;;;;;5029868;28;20575;-62
2024/03/06 06:04:08;;;;;;;6.03;4.30;;;;;;;;;;5019585;28;20411;-62
2024/03/06 06:06:34;;;;;;;5.63;4.00;;;;;;;;;;5017339;28;20134;-61
2024/03/06 06:08:59;;;;;;;5.63;3.90;;;;;;;;;;5024090;28;20061;-61
2024/03/06 06:11:24;;;;;;;5.95;3.92;;;;;;;;;;5023568;28;20076;-61
2024/03/06 06:13:50;;;;;;;5.10;3.92;;;;;;;;;;5017588;28;20057;-62
2024/03/06 06:16:15;;;;;;;6.32;4.03;;;;;;;;;;5025502;28;20420;-63
2024/03/06 06:18:41;;;;;;;5.43;4.25;;;;;;;;;;5021353;28;20033;-61
2024/03/06 06:21:07;;;;;;;5.68;3.97;;;;;;;;;;5023625;28;20560;-61
2024/03/06 06:23:33;;;;;;;5.97;4.18;;;;;;;;;;5020522;28;20402;-61
2024/03/06 06:25:58;;;;;;;6.35;4.15;;;;;;;;;;5026399;28;20034;-62
2024/03/06 06:28:24;;;;;;;5.95;3.90;;;;;;;;;;5014743;28;20042;-61
2024/03/06 06:30:52;;;;;;;5.78;3.95;;;;;;;;;;5015255;28;20099;-61
2024/03/06 06:33:17;;;;;;;7.20;4.00;;;;;;;;;;5022304;28;20159;-60
2024/03/06 06:35:43;;;;;;;5.45;3.80;;;;;;;;;;5022956;28;20559;-60
2024/03/06 06:38:08;;;;;;;4.50;3.70;;;;;;;;;;5026474;28;20095;-61
2024/03/06 06:40:33;;;;;;;14.07;8.10;;;;;;;;;;5029426;28;20122;-63
2024/03/06 06:42:59;;;;;;;12.63;8.05;;;;;;;;;;5029452;28;20104;-62
2024/03/06 06:45:24;;;;;;;11.80;6.00;;;;;;;;;;5021535;28;20025;-60
2024/03/06 06:47:50;;;;;;;6.97;4.68;;;;;;;;;;5026526;28;20032;-61
2024/03/06 06:50:16;;;;;;;5.03;4.18;;;;;;;;;;5024270;28;20022;-62
2024/03/06 06:52:41;;;;;;;6.68;4.20;;;;;;;;;;5024877;28;20013;-63
2024/03/06 06:55:09;;;;;;;5.03;3.92;;;;;;;;;;5022852;28;20056;-63
2024/03/06 06:57:34;;;;;;;6.10;4.35;;;;;;;;;;5022764;28;20036;-62
2024/03/06 07:00:00;;;;;;;6.90;4.50;;;;;;;;;;5023577;28;20025;-62
2024/03/06 07:02:25;;;;;;;5.78;4.05;;;;;;;;;;5022232;28;20025;-63
2024/03/06 07:04:51;;;;;;;6.68;4.47;;;;;;;;;;5024099;28;20414;-62
2024/03/06 07:07:16;;;;;;;5.97;4.03;;;;;;;;;;5017852;28;20021;-62
2024/03/06 07:09:42;;;;;;;6.20;4.22;;;;;;;;;;5022050;28;20492;-62
2024/03/06 07:12:07;;;;;;;7.28;4.22;;;;;;;;;;5010836;28;20036;-63
2024/03/06 07:14:33;;;;;;;6.95;4.38;;;;;;;;;;5012942;28;20087;-63
2024/03/06 07:16:58;;;;;;;5.28;4.10;;;;;;;;;;5011078;28;20541;-62
2024/03/06 07:19:23;;;;;;;6.53;4.30;;;;;;;;;;5008565;28;20040;-63
2024/03/06 07:21:49;;;;;;;5.97;4.10;;;;;;;;;;5009449;28;20017;-62
2024/03/06 07:24:14;;;;;;;6.43;4.38;;;;;;;;;;5011918;28;20025;-63
2024/03/06 07:26:39;;;;;;;5.38;4.28;;;;;;;;;;5012553;28;20080;-64
2024/03/06 07:29:12;;;;;;;5.82;3.88;;;;;;;;;;5011946;28;20022;-63
2024/03/06 07:31:38;;;;;;;5.65;4.00;;;;;;;;;;5012109;28;20499;-63
2024/03/06 07:34:04;;;;;;;5.85;4.25;;;;;;;;;;5011285;28;20033;-63
2024/03/06 07:36:29;;;;;;;5.72;3.92;;;;;;;;;;5009991;28;20069;-64
2024/03/06 07:38:54;;;;;;;5.80;3.90;;;;;;;;;;5010772;28;20124;-64
2024/03/06 07:41:20;;;;;;;5.15;3.42;;;;;;;;;;5009942;28;20033;-63
2024/03/06 07:43:45;;;;;;;5.65;4.07;;;;;;;;;;5014607;28;20041;-63
2024/03/06 07:46:10;;;;;;;4.65;3.78;;;;;;;;;;5023808;28;20151;-63
2024/03/06 07:48:41;;;;;;;4.97;3.78;;;;;;;;;;5025204;28;20420;-63
2024/03/06 07:51:07;;;;;;;5.65;3.97;;;;;;;;;;5025283;28;20029;-62
2024/03/06 07:53:32;;;;;;;6.13;4.00;;;;;;;;;;5022820;28;20042;-62
2024/03/06 07:55:57;;;;;;;5.97;3.90;;;;;;;;;;5025505;28;20038;-63
2024/03/06 07:58:23;;;;;;;5.30;3.75;;;;;;;;;;5022391;28;20442;-63
2024/03/06 08:00:48;;;;;;;4.90;3.72;;;;;;;;;;5025081;28;20026;-63
2024/03/06 08:03:13;;;;;;;4.50;3.58;;;;;;;;;;5020398;28;20041;-63
2024/03/06 08:05:39;;;;;;;6.75;4.07;;;;;;;;;;5016544;28;20037;-62
2024/03/06 08:08:04;;;;;;;4.60;3.40;;;;;;;;;;5016786;28;20038;-62
2024/03/06 08:10:31;;;;;;;4.90;3.67;;;;;;;;;;5020794;28;20049;-63
2024/03/06 08:12:56;;;;;;;5.75;4.15;;;;;;;;;;5022752;28;20417;-63
2024/03/06 08:15:21;;;;;;;6.00;3.88;;;;;;;;;;5021425;28;20115;-63
2024/03/06 08:17:47;;;;;;;5.28;3.58;;;;;;;;;;5019696;28;20036;-62
2024/03/06 08:20:12;;;;;;;5.53;3.83;;;;;;;;;;5028744;28;20037;-62
2024/03/06 08:22:38;;;;;;;5.07;3.80;;;;;;;;;;5020655;28;20044;-62
2024/03/06 08:25:13;;;;;;;4.55;3.65;;;;;;;;;;5021416;28;20084;-62
2024/03/06 08:27:39;;;;;;;5.85;4.07;;;;;;;;;;5014880;28;20095;-62
2024/03/06 08:30:04;;;;;;;5.35;3.75;;;;;;;;;;5019239;28;20430;-63
2024/03/06 08:32:31;;;;;;;5.10;3.75;;;;;;;;;;5028197;28;20061;-65
2024/03/06 08:34:56;;;;;;;4.57;3.70;;;;;;;;;;5028400;28;20045;-63
2024/03/06 08:37:22;;;;;;;5.30;4.03;;;;;;;;;;5027802;28;20099;-62
2024/03/06 08:39:48;;;;;;;5.00;3.58;;;;;;;;;;5028477;28;20041;-63
2024/03/06 08:42:16;;;;;;;5.53;3.58;;;;;;;;;;5021134;28;20037;-64
2024/03/06 08:44:42;;;;;;;5.20;3.60;;;;;;;;;;5013722;28;20088;-63
2024/03/06 08:47:07;;;;;;;4.88;3.60;;;;;;;;;;5027510;28;20424;-62
2024/03/06 08:49:33;;;;;;;5.38;3.85;;;;;;;;;;5016479;28;20034;-62
2024/03/06 08:51:59;;;;;;;6.03;4.10;;;;;;;;;;5019627;28;20116;-63
2024/03/06 08:54:24;;;;;;;5.07;3.67;;;;;;;;;;5024422;28;20096;-62
2024/03/06 08:56:53;;;;;;;5.95;3.95;;;;;;;;;;5020275;28;20550;-62
2024/03/06 08:59:18;;;;;;;4.40;3.55;;;;;;;;;;5027452;28;20091;-62
2024/03/06 09:01:43;;;;;;;5.15;3.92;;;;;;;;;;5027703;28;20760;-63
2024/03/06 09:04:09;;;;;;;5.45;3.90;;;;;;;;;;5024687;28;20957;-62
2024/03/06 09:06:34;;;;;;;5.47;4.05;;;;;;;;;;5020736;28;20052;-62
2024/03/06 09:08:59;;;;;;;5.32;3.70;;;;;;;;;;5027525;28;20529;-62
2024/03/06 09:11:25;;;;;;;4.70;3.17;;;;;;;;;;5024884;28;20033;-62
2024/03/06 09:13:50;;;;;;;6.28;3.95;;;;;;;;;;5027619;28;20409;-62
2024/03/06 09:16:15;;;;;;;6.05;4.25;;;;;;;;;;5027770;28;20062;-62
2024/03/06 09:18:40;;;;;;;6.05;3.47;;;;;;;;;;5026945;28;20465;-63
2024/03/06 09:21:06;;;;;;;5.03;3.55;;;;;;;;;;5027279;28;20044;-63
2024/03/06 09:23:32;;;;;;;5.80;4.00;;;;;;;;;;5026855;28;20163;-62
2024/03/06 09:25:57;;;;;;;5.70;4.13;;;;;;;;;;5027022;28;20036;-62
2024/03/06 09:28:23;;;;;;;5.63;3.88;;;;;;;;;;5026042;28;20120;-62
2024/03/06 09:30:48;;;;;;;5.22;3.95;;;;;;;;;;5018092;28;20365;-62
2024/03/06 09:33:13;;;;;;;5.68;3.88;;;;;;;;;;5026840;28;20310;-61
2024/03/06 09:35:44;;;;;;;4.43;3.70;;;;;;;;;;5021618;28;20045;-62
2024/03/06 09:38:10;;;;;;;4.70;3.80;;;;;;;;;;5027188;28;20036;-63
2024/03/06 09:40:35;;;;;;;5.55;3.85;;;;;;;;;;5022917;28;20042;-62
2024/03/06 09:43:00;;;;;;;6.53;4.20;;;;;;;;;;5023052;28;20029;-63
2024/03/06 09:45:26;;;;;;;7.05;4.30;;;;;;;;;;5019549;28;20984;-62
2024/03/06 09:47:51;;;;;;;6.03;3.80;;;;;;;;;;5020194;28;20445;-62
2024/03/06 09:50:22;;;;;;;6.35;4.10;;;;;;;;;;5010945;28;20041;-63
2024/03/06 09:52:48;;;;;;;6.57;4.22;;;;;;;;;;5015225;28;20055;-62
2024/03/06 09:55:15;;;;;;;5.88;4.03;;;;;;;;;;5016972;28;20538;-61
2024/03/06 09:57:40;;;;;;;5.05;3.80;;;;;;;;;;5012276;28;20069;-63
2024/03/06 10:00:11;;;;;;;6.60;4.18;;;;;;;;;;5011098;28;20065;-63
2024/03/06 10:02:49;;;;;;;6.07;3.95;;;;;;;;;;5012017;28;20501;-63
2024/03/06 10:05:23;;;;;;;5.82;3.92;;;;;;;;;;5012293;28;20449;-63
2024/03/06 10:07:54;;;;;;;6.97;3.97;;;;;;;;;;5012171;28;20041;-64
2024/03/06 10:10:22;;;;;;;5.05;3.80;;;;;;;;;;5012274;28;20516;-64
2024/03/06 10:12:47;;;;;;;5.45;3.50;;;;;;;;;;5012546;28;20475;-63
2024/03/06 10:15:13;;;;;;;5.47;3.80;;;;;;;;;;5011415;28;20046;-66
2024/03/06 10:17:38;;;;;;;6.45;4.30;;;;;;;;;;5018599;28;20025;-66
2024/03/06 10:20:24;;;;;;;5.72;3.95;;;;;;;;;;5016891;28;20025;-67
2024/03/06 10:22:50;;;;;;;6.28;4.10;;;;;;;;;;5011756;28;20030;-67
2024/03/06 10:25:18;;;;;;;5.55;3.92;;;;;;;;;;5012417;28;20034;-65
2024/03/06 10:27:43;;;;;;;5.30;3.50;;;;;;;;;;5024960;28;20132;-64
2024/03/06 10:30:12;;;;;;;4.93;3.53;;;;;;;;;;5025868;28;20120;-65
2024/03/06 10:32:38;;;;;;;4.27;3.23;;;;;;;;;;5023067;28;20044;-65
2024/03/06 10:35:06;;;;;;;5.18;3.80;;;;;;;;;;5026734;28;20045;-64
2024/03/06 10:37:31;;;;;;;6.13;4.00;;;;;;;;;;5026010;28;20053;-65
2024/03/06 10:39:58;;;;;;;6.25;3.80;;;;;;;;;;5023022;28;20065;-65
2024/03/06 10:42:23;;;;;;;6.32;4.03;;;;;;;;;;5021767;28;20034;-68
2024/03/06 10:44:51;;;;;;;5.00;3.75;;;;;;;;;;5016438;28;20045;-68
2024/03/06 10:47:16;;;;;;;5.55;3.58;;;;;;;;;;5012811;28;20125;-68
2024/03/06 10:49:42;;;;;;;4.95;3.80;;;;;;;;;;5012383;28;20042;-69
2024/03/06 10:52:08;;;;;;;5.20;3.90;;;;;;;;;;5012185;28;20041;-69
2024/03/06 10:54:38;;;;;;;5.97;3.65;;;;;;;;;;5011925;28;20095;-69
2024/03/06 10:57:04;;;;;;;4.72;3.72;;;;;;;;;;5011953;28;20053;-69
2024/03/06 10:59:29;;;;;;;5.55;3.75;;;;;;;;;;5010682;28;20049;-70
2024/03/06 11:01:55;;;;;;;5.53;3.67;;;;;;;;;;5011027;28;20053;-70
2024/03/06 11:04:22;;;;;;;5.25;3.42;;;;;;;;;;5013872;28;20135;-68
2024/03/06 11:06:48;;;;;;;6.07;3.47;;;;;;;;;;5011136;28;20044;-69
2024/03/06 11:09:15;;;;;;;5.13;3.67;;;;;;;;;;5011027;28;20034;-70
2024/03/06 11:11:47;;;;;;;4.80;3.58;;;;;;;;;;5013321;28;20034;-70
2024/03/06 11:14:13;;;;;;;5.57;3.70;;;;;;;;;;5012370;28;20092;-70
2024/03/06 11:16:55;;;;;;;4.88;3.60;;;;;;;;;;5010453;28;20705;-69
2024/03/06 11:19:21;;;;;;;5.07;3.53;;;;;;;;;;5011184;28;20034;-70
2024/03/06 11:21:47;;;;;;;5.68;3.80;;;;;;;;;;5012421;28;20032;-70
2024/03/06 11:24:19;;;;;;;4.90;3.75;;;;;;;;;;5010584;28;20041;-69
2024/03/06 11:26:56;;;;;;;5.18;3.67;;;;;;;;;;5011070;28;20036;-68
2024/03/06 11:29:21;;;;;;;4.90;3.40;;;;;;;;;;5010154;28;20132;-69
2024/03/06 11:32:16;;;;;;;4.60;3.22;;;;;;;;;;5012212;28;20029;-69
2024/03/06 11:34:41;;;;;;;4.20;3.28;;;;;;;;;;4992339;28;20795;-65
2024/03/06 11:37:09;;;;;;;5.25;3.17;;;;;;;;;;5022721;28;20026;-68
2024/03/06 11:39:36;;;;;;;4.55;3.45;;;;;;;;;;5021791;28;20060;-66
2024/03/06 11:42:02;;;;;;;4.68;3.33;;;;;;;;;;5017845;28;20034;-64
2024/03/06 11:44:29;;;;;;;3.97;3.20;;;;;;;;;;5015388;28;20025;-64
2024/03/06 11:46:54;;;;;;;5.32;3.42;;;;;;;;;;5012866;28;20041;-62
2024/03/06 11:49:28;;;;;;;5.53;3.70;;;;;;;;;;5013206;28;20041;-65
2024/03/06 11:51:57;;;;;;;5.65;3.33;;;;;;;;;;5013944;28;20149;-65
2024/03/06 11:54:24;;;;;;;5.25;3.38;;;;;;;;;;5021026;28;20537;-63
2024/03/06 11:56:53;;;;;;;4.60;3.78;;;;;;;;;;5014908;28;20084;-62
2024/03/06 11:59:28;;;;;;;8.43;3.95;;;;;;;;;;5022943;28;20029;-64
2024/03/06 12:01:54;;;;;;;5.95;3.80;;;;;;;;;;5015839;28;20148;-64
2024/03/06 12:04:24;;;;;;;5.80;3.92;;;;;;;;;;5017149;28;20108;-65
2024/03/06 12:06:50;;;;;;;8.25;3.83;;;;;;;;;;5011503;28;20095;-64
2024/03/06 12:09:15;;;;;;;5.55;4.05;;;;;;;;;;5010375;28;20129;-65
2024/03/06 12:11:43;;;;;;;5.38;3.60;;;;;;;;;;5011283;28;20095;-64
2024/03/06 12:14:09;;;;;;;4.68;3.45;;;;;;;;;;5012197;28;20080;-65
2024/03/06 12:16:35;;;;;;;6.15;3.80;;;;;;;;;;5010764;28;20136;-65
2024/03/06 12:19:00;;;;;;;7.85;3.72;;;;;;;;;;5015681;28;20132;-64
2024/03/06 12:21:32;;;;;;;5.78;3.47;;;;;;;;;;5010735;28;20164;-65
2024/03/06 12:24:09;;;;;;;8.65;4.43;;;;;;;;;;5010969;28;20038;-65
2024/03/06 12:26:36;;;;;;;4.78;3.80;;;;;;;;;;5008898;28;20030;-64
2024/03/06 12:29:07;;;;;;;5.22;4.30;;;;;;;;;;5009988;28;20049;-63
2024/03/06 12:31:34;;;;;;;7.90;4.25;;;;;;;;;;5010003;28;20037;-64
2024/03/06 12:33:59;;;;;;;5.32;3.97;;;;;;;;;;5009219;28;20037;-66
2024/03/06 12:36:27;;;;;;;6.00;4.35;;;;;;;;;;5008955;28;20045;-64
2024/03/06 12:38:56;;;;;;;7.18;4.53;;;;;;;;;;5010476;28;20064;-63
2024/03/06 12:41:21;;;;;;;6.20;3.83;;;;;;;;;;5011736;28;20124;-64
2024/03/06 12:43:46;;;;;;;5.75;3.85;;;;;;;;;;5010663;28;20030;-64
2024/03/06 12:46:12;;;;;;;4.80;3.80;;;;;;;;;;5010344;28;20053;-64
2024/03/06 12:48:37;;;;;;;6.82;4.22;;;;;;;;;;5010730;28;20390;-64
2024/03/06 12:51:04;;;;;;;5.35;3.78;;;;;;;;;;5010603;28;20101;-64
2024/03/06 12:53:30;;;;;;;7.25;4.22;;;;;;;;;;5010154;28;20124;-65
2024/03/06 12:55:55;;;;;;;5.50;3.60;;;;;;;;;;5009593;28;20504;-63
2024/03/06 12:58:21;;;;;;;5.70;4.20;;;;;;;;;;5010604;28;20048;-63
2024/03/06 13:00:46;;;;;;;5.47;4.10;;;;;;;;;;5024323;28;20497;-64
2024/03/06 13:03:11;;;;;;;6.43;4.55;;;;;;;;;;5025488;28;20025;-64
2024/03/06 13:05:37;;;;;;;6.32;4.55;;;;;;;;;;5027814;28;20029;-64
2024/03/06 13:08:02;;;;;;;5.22;4.05;;;;;;;;;;5027435;28;20527;-64
2024/03/06 13:10:28;;;;;;;6.95;4.40;;;;;;;;;;5022465;28;20026;-64
2024/03/06 13:12:53;;;;;;;4.97;3.90;;;;;;;;;;5012951;28;20037;-66
2024/03/06 13:15:18;;;;;;;5.63;4.10;;;;;;;;;;5013318;28;20075;-64
2024/03/06 13:17:44;;;;;;;5.40;3.65;;;;;;;;;;5011761;28;20087;-64
2024/03/06 13:20:11;;;;;;;5.88;4.20;;;;;;;;;;5016289;28;20034;-66
2024/03/06 13:22:37;;;;;;;5.80;4.45;;;;;;;;;;5017266;28;20048;-64
2024/03/06 13:25:02;;;;;;;6.28;4.47;;;;;;;;;;5019139;28;20030;-64
2024/03/06 13:27:27;;;;;;;5.97;4.07;;;;;;;;;;5027962;28;20505;-64
2024/03/06 13:29:53;;;;;;;5.18;3.55;;;;;;;;;;5027477;28;20405;-64
2024/03/06 13:32:18;;;;;;;4.75;3.70;;;;;;;;;;5028693;28;20513;-64
2024/03/06 13:34:43;;;;;;;5.55;4.10;;;;;;;;;;5027032;28;20041;-65
2024/03/06 13:37:10;;;;;;;5.85;4.38;;;;;;;;;;5027723;28;20394;-64
2024/03/06 13:39:35;;;;;;;5.15;3.80;;;;;;;;;;5027664;28;20478;-65
2024/03/06 13:42:01;;;;;;;6.10;3.92;;;;;;;;;;5026638;28;20061;-64
2024/03/06 13:44:26;;;;;;;5.32;4.03;;;;;;;;;;5026481;28;20057;-64
2024/03/06 13:46:52;;;;;;;5.10;4.00;;;;;;;;;;5027503;28;20009;-66
2024/03/06 13:49:36;;;;;;;6.00;4.13;;;;;;;;;;5027720;28;20028;-65
2024/03/06 13:52:01;;;;;;;6.40;4.18;;;;;;;;;;5022141;28;20037;-63
2024/03/06 13:54:27;;;;;;;5.40;3.72;;;;;;;;;;5026502;28;20030;-65
2024/03/06 13:56:55;;;;;;;6.20;4.00;;;;;;;;;;5027201;28;20329;-65
2024/03/06 13:59:21;;;;;;;6.00;4.15;;;;;;;;;;5026603;28;20037;-64
2024/03/06 14:01:48;;;;;;;29.65;5.65;;;;;;;;;;5023228;28;20033;-64
2024/03/06 14:04:14;;;;;;;11.40;4.47;;;;;;;;;;5025921;28;20038;-64
2024/03/06 14:06:39;;;;;;;6.57;3.95;;;;;;;;;;5036419;28;20048;-65
2024/03/06 14:09:04;;;;;;;6.63;4.20;;;;;;;;;;5038552;28;20373;-63
2024/03/06 14:11:30;;;;;;;7.93;4.38;;;;;;;;;;5037496;28;20576;-65
2024/03/06 14:13:55;;;;;;;6.60;4.35;;;;;;;;;;5036865;28;20098;-65
2024/03/06 14:16:21;;;;;;;8.20;4.30;;;;;;;;;;5024405;28;20076;-64
2024/03/06 14:18:46;;;;;;;6.28;4.00;;;;;;;;;;5015743;28;20464;-68
2024/03/06 14:21:11;;;;;;;6.15;4.00;;;;;;;;;;5016984;28;20363;-68
2024/03/06 14:23:37;;;;;;;5.20;3.83;;;;;;;;;;5021603;28;20049;-65
2024/03/06 14:26:03;;;;;;;6.25;3.97;;;;;;;;;;5027155;28;20115;-64
2024/03/06 14:28:28;;;;;;;8.38;4.22;;;;;;;;;;5026427;28;20028;-63
2024/03/06 14:30:53;;;;;;;5.93;3.88;;;;;;;;;;5021345;28;20025;-63
2024/03/06 14:33:19;;;;;;;6.82;4.20;;;;;;;;;;5014444;28;20036;-64
2024/03/06 14:38:47;;;;;;;6.38;4.18;;;;;;;;;;5011571;28;20545;-68
2024/03/06 14:41:12;;;;;;;9.35;4.18;;;;;;;;;;5016712;28;20068;-68
2024/03/06 14:43:38;;;;;;;7.63;4.15;;;;;;;;;;5021517;28;20041;-67
2024/03/06 14:46:06;;;;;;;4.82;3.63;;;;;;;;;;5022205;28;20112;-67